createdAt,value
2019-05-05T00:00:58.859Z,5.90
2019-05-05T00:03:40.625Z,5.23
2019-05-05T00:06:07.702Z,5.78
2019-05-05T00:08:35.439Z,6.37
2019-05-05T00:11:12.097Z,6.33
2019-05-05T00:13:44.817Z,5.93
2019-05-05T00:16:26.247Z,6.10
2019-05-05T00:18:54.291Z,7.23
2019-05-05T00:21:24.305Z,6.53
2019-05-05T00:23:51.911Z,6.87
2019-05-05T00:26:19.260Z,7.47
2019-05-05T00:28:46.614Z,6.07
2019-05-05T00:31:15.145Z,6.62
2019-05-05T00:33:44.816Z,6.80
2019-05-05T00:36:14.534Z,7.37
2019-05-05T00:38:44.114Z,5.63
2019-05-05T00:41:11.883Z,6.22
2019-05-05T00:43:39.751Z,5.40
2019-05-05T00:46:14.826Z,6.35
2019-05-05T00:48:44.509Z,7.30
2019-05-05T00:51:12.160Z,6.60
2019-05-05T00:53:39.303Z,5.80
2019-05-05T00:56:06.277Z,6.63
2019-05-05T00:58:35.295Z,6.20
2019-05-05T01:01:22.143Z,5.50
2019-05-05T01:03:48.785Z,5.90
2019-05-05T01:06:25.539Z,5.10
2019-05-05T01:08:54.988Z,5.60
2019-05-05T01:11:22.085Z,5.45
2019-05-05T01:13:49.063Z,5.70
2019-05-05T01:16:16.011Z,6.12
2019-05-05T01:18:45.060Z,5.30
2019-05-05T01:21:11.907Z,6.72
2019-05-05T01:23:38.526Z,6.22
2019-05-05T01:26:05.315Z,7.03
2019-05-05T01:28:32.315Z,6.05
2019-05-05T01:31:02.203Z,6.20
2019-05-05T01:33:44.922Z,8.20
2019-05-05T01:36:11.982Z,6.40
2019-05-05T01:38:45.875Z,6.33
2019-05-05T01:41:22.994Z,6.87
2019-05-05T01:43:49.638Z,6.42
2019-05-05T01:46:16.255Z,5.80
2019-05-05T01:48:44.504Z,5.30
2019-05-05T01:51:11.375Z,6.33
2019-05-05T01:53:38.005Z,6.15
2019-05-05T01:56:04.995Z,6.30
2019-05-05T01:58:31.775Z,5.53
2019-05-05T02:00:58.399Z,5.70
2019-05-05T02:03:25.351Z,5.87
2019-05-05T02:05:52.082Z,5.80
2019-05-05T02:08:20.507Z,5.25
2019-05-05T02:10:48.355Z,5.75
2019-05-05T02:13:16.146Z,6.08
2019-05-05T02:15:44.603Z,6.62
2019-05-05T02:18:14.806Z,6.10
2019-05-05T02:20:44.905Z,6.87
2019-05-05T02:23:15.127Z,5.50
2019-05-05T02:25:44.789Z,7.37
2019-05-05T02:28:11.611Z,6.35
2019-05-05T02:30:46.497Z,6.28
2019-05-05T02:33:15.651Z,5.47
2019-05-05T02:35:45.605Z,6.42
2019-05-05T02:38:11.373Z,5.83
2019-05-05T02:40:38.199Z,6.45
2019-05-05T02:43:05.643Z,7.42
2019-05-05T02:45:36.440Z,6.45
2019-05-05T02:48:14.881Z,6.53
2019-05-05T02:51:01.159Z,7.80
2019-05-05T02:53:26.327Z,5.65
2019-05-05T02:55:55.455Z,5.50
2019-05-05T02:58:24.458Z,6.42
2019-05-05T03:01:13.971Z,6.15
2019-05-05T03:03:43.815Z,6.60
2019-05-05T03:06:10.663Z,6.17
2019-05-05T03:08:38.223Z,6.20
2019-05-05T03:11:05.376Z,5.85
2019-05-05T03:13:33.743Z,5.92
2019-05-05T03:16:14.687Z,6.28
2019-05-05T03:18:41.304Z,7.35
2019-05-05T03:21:08.034Z,6.17
2019-05-05T03:23:35.395Z,6.03
2019-05-05T03:26:03.819Z,5.70
2019-05-05T03:28:40.655Z,6.45
2019-05-05T03:31:07.600Z,6.65
2019-05-05T03:33:35.168Z,6.25
2019-05-05T03:36:03.852Z,6.42
2019-05-05T03:38:31.294Z,6.10
2019-05-05T03:40:59.372Z,6.05
2019-05-05T03:43:29.928Z,6.55
2019-05-05T03:46:04.301Z,6.33
2019-05-05T03:48:31.978Z,6.70
2019-05-05T03:50:59.178Z,6.25
2019-05-05T03:53:26.378Z,7.10
2019-05-05T03:55:55.774Z,5.97
2019-05-05T03:58:24.067Z,6.92
2019-05-05T04:01:10.710Z,6.05
2019-05-05T04:03:37.607Z,6.72
2019-05-05T04:06:06.483Z,6.53
2019-05-05T04:08:33.862Z,6.92
2019-05-05T04:11:03.912Z,5.92
2019-05-05T04:13:34.545Z,6.17
2019-05-05T04:16:30.323Z,6.25
2019-05-05T04:19:03.451Z,5.65
2019-05-05T04:21:33.797Z,6.10
2019-05-05T04:23:59.347Z,6.35
2019-05-05T04:26:26.295Z,6.10
2019-05-05T04:28:54.162Z,6.33
2019-05-05T04:31:21.311Z,6.10
2019-05-05T04:33:48.358Z,5.75
2019-05-05T04:36:15.715Z,6.10
2019-05-05T04:38:43.960Z,5.33
2019-05-05T04:41:13.957Z,7.03
2019-05-05T04:43:44.148Z,5.33
2019-05-05T04:46:10.881Z,6.12
2019-05-05T04:48:44.165Z,6.28
2019-05-05T04:51:15.705Z,6.10
2019-05-05T04:54:01.089Z,6.03
2019-05-05T04:56:30.002Z,5.00
2019-05-05T04:58:56.862Z,4.45
2019-05-05T05:01:24.247Z,5.55
2019-05-05T05:04:07.919Z,5.05
2019-05-05T05:06:39.258Z,5.08
2019-05-05T05:09:07.087Z,4.45
2019-05-05T05:11:35.199Z,5.25
2019-05-05T05:14:03.862Z,5.83
2019-05-05T05:16:32.159Z,6.70
2019-05-05T05:18:58.796Z,4.73
2019-05-05T05:21:26.304Z,5.43
2019-05-05T05:23:53.624Z,5.60
2019-05-05T05:26:20.539Z,4.70
2019-05-05T05:28:47.175Z,4.23
2019-05-05T05:31:14.122Z,6.83
2019-05-05T05:33:41.169Z,3.97
2019-05-05T05:36:08.923Z,4.50
2019-05-05T05:38:35.565Z,3.80
2019-05-05T05:41:16.031Z,3.20
2019-05-05T05:44:03.450Z,3.00
2019-05-05T05:46:40.914Z,3.27
2019-05-05T05:49:24.310Z,3.40
2019-05-05T05:51:51.334Z,2.37
2019-05-05T05:54:18.282Z,2.80
2019-05-05T05:56:45.322Z,2.83
2019-05-05T05:59:14.058Z,2.87
2019-05-05T06:01:41.163Z,2.03
2019-05-05T06:04:08.882Z,2.87
2019-05-05T06:06:35.886Z,2.40
2019-05-05T06:09:04.260Z,2.67
2019-05-05T06:11:31.807Z,2.50
2019-05-05T06:13:58.435Z,2.20
2019-05-05T06:16:25.803Z,2.47
2019-05-05T06:18:54.222Z,2.30
2019-05-05T06:21:21.634Z,2.70
2019-05-05T06:23:48.990Z,2.13
2019-05-05T06:26:17.270Z,2.60
2019-05-05T06:28:44.854Z,1.97
2019-05-05T06:31:13.992Z,2.03
2019-05-05T06:33:41.075Z,1.67
2019-05-05T06:36:09.038Z,2.50
2019-05-05T06:38:35.654Z,2.43
2019-05-05T06:41:23.731Z,1.90
2019-05-05T06:44:10.223Z,2.23
2019-05-05T06:46:55.472Z,2.27
2019-05-05T06:49:23.794Z,2.30
2019-05-05T06:51:51.023Z,2.90
2019-05-05T06:54:17.988Z,2.63
2019-05-05T06:56:44.864Z,2.60
2019-05-05T06:59:13.685Z,3.37
2019-05-05T07:01:44.271Z,3.03
2019-05-05T07:04:11.283Z,2.77
2019-05-05T07:06:50.914Z,2.73
2019-05-05T07:09:07.418Z,2.93
2019-05-05T07:11:34.477Z,2.60
2019-05-05T07:14:04.790Z,3.30
2019-05-05T07:16:31.775Z,4.50
2019-05-05T07:18:58.420Z,3.47
2019-05-05T07:21:25.053Z,4.37
2019-05-05T07:23:53.766Z,3.60
2019-05-05T07:26:20.799Z,3.30
2019-05-05T07:28:47.420Z,5.27
2019-05-05T07:31:14.521Z,4.37
2019-05-05T07:33:43.642Z,4.73
2019-05-05T07:36:28.357Z,5.50
2019-05-05T07:38:55.200Z,6.73
2019-05-05T07:41:23.498Z,7.10
2019-05-05T07:43:50.307Z,7.57
2019-05-05T07:46:16.914Z,8.60
2019-05-05T07:48:44.212Z,5.53
2019-05-05T07:51:11.336Z,7.43
2019-05-05T07:53:37.952Z,6.47
2019-05-05T07:56:07.617Z,7.23
2019-05-05T07:58:34.601Z,6.90
2019-05-05T08:01:01.291Z,6.47
2019-05-05T08:03:28.883Z,8.07
2019-05-05T08:05:55.771Z,7.80
2019-05-05T08:08:24.444Z,6.97
2019-05-05T08:10:54.071Z,6.33
2019-05-05T08:13:21.262Z,6.53
2019-05-05T08:15:57.494Z,7.03
2019-05-05T08:18:37.378Z,6.10
2019-05-05T08:21:04.627Z,5.97
2019-05-05T08:23:51.544Z,6.40
2019-05-05T08:26:37.566Z,6.50
2019-05-05T08:29:24.022Z,5.80
2019-05-05T08:31:55.635Z,5.60
2019-05-05T08:34:24.456Z,7.60
2019-05-05T08:36:51.255Z,6.80
2019-05-05T08:39:21.301Z,6.73
2019-05-05T08:41:47.452Z,6.33
2019-05-05T08:44:17.887Z,7.30
2019-05-05T08:46:44.583Z,7.40
2019-05-05T08:49:13.721Z,5.10
2019-05-05T08:51:40.820Z,6.27
2019-05-05T08:54:08.132Z,6.57
2019-05-05T08:56:35.083Z,6.00
2019-05-05T08:59:03.658Z,5.67
2019-05-05T09:01:30.824Z,6.20
2019-05-05T09:03:58.355Z,7.90
2019-05-05T09:06:25.004Z,7.03
2019-05-05T09:08:51.866Z,8.17
2019-05-05T09:11:18.778Z,6.33
2019-05-05T09:13:45.782Z,5.93
2019-05-05T09:16:14.365Z,7.73
2019-05-05T09:18:57.619Z,5.60
2019-05-05T09:21:24.588Z,6.67
2019-05-05T09:23:59.991Z,5.53
2019-05-05T09:26:34.401Z,6.23
2019-05-05T09:29:24.310Z,6.23
2019-05-05T09:31:53.916Z,5.30
2019-05-05T09:34:21.099Z,6.60
2019-05-05T09:36:48.555Z,5.90
2019-05-05T09:39:15.495Z,4.90
2019-05-05T09:41:44.470Z,4.83
2019-05-05T09:44:13.484Z,5.43
2019-05-05T09:46:40.219Z,4.70
2019-05-05T09:49:08.594Z,4.43
2019-05-05T09:51:35.211Z,4.77
2019-05-05T09:54:13.776Z,5.20
2019-05-05T09:56:31.479Z,3.80
2019-05-05T09:58:58.948Z,4.60
2019-05-05T10:01:26.496Z,3.83
2019-05-05T10:03:55.824Z,3.90
2019-05-05T10:06:24.393Z,4.70
2019-05-05T10:08:53.835Z,3.30
2019-05-05T10:11:20.983Z,3.37
2019-05-05T10:13:49.739Z,4.27
2019-05-05T10:16:17.208Z,4.33
2019-05-05T10:18:44.928Z,5.00
2019-05-05T10:21:13.851Z,5.47
2019-05-05T10:23:43.703Z,4.40
2019-05-05T10:26:10.955Z,3.13
2019-05-05T10:28:39.275Z,3.63
2019-05-05T10:31:06.730Z,4.10
2019-05-05T10:33:36.595Z,3.23
2019-05-05T10:36:03.275Z,4.13
2019-05-05T10:38:30.535Z,3.20
2019-05-05T10:40:57.160Z,4.17
2019-05-05T10:43:24.630Z,3.43
2019-05-05T10:45:54.687Z,6.10
2019-05-05T10:48:23.592Z,4.20
2019-05-05T10:50:50.795Z,5.40
2019-05-05T10:53:18.176Z,3.30
2019-05-05T10:55:45.499Z,4.10
2019-05-05T10:58:13.767Z,4.60
2019-05-05T11:00:48.894Z,4.50
2019-05-05T11:03:15.822Z,3.70
2019-05-05T11:05:44.861Z,4.30
2019-05-05T11:08:13.653Z,4.50
2019-05-05T11:10:40.579Z,4.70
2019-05-05T11:13:09.034Z,4.27
2019-05-05T11:15:36.123Z,4.27
2019-05-05T11:18:04.002Z,4.57
2019-05-05T11:20:31.358Z,4.03
2019-05-05T11:22:58.020Z,3.77
2019-05-05T11:25:25.015Z,4.47
2019-05-05T11:27:54.138Z,4.90
2019-05-05T11:30:33.890Z,5.23
2019-05-05T11:33:26.807Z,4.80
2019-05-05T11:36:00.315Z,5.20
2019-05-05T11:38:27.043Z,5.00
2019-05-05T11:40:54.654Z,4.80
2019-05-05T11:43:21.724Z,5.10
2019-05-05T11:45:48.484Z,5.90
2019-05-05T11:48:17.004Z,5.83
2019-05-05T11:50:43.846Z,5.50
2019-05-05T11:53:10.547Z,3.70
2019-05-05T11:55:37.187Z,3.20
2019-05-05T11:58:03.847Z,4.73
2019-05-05T12:00:31.052Z,4.40
2019-05-05T12:02:57.775Z,3.93
2019-05-05T12:05:24.481Z,4.33
2019-05-05T12:07:54.130Z,4.37
2019-05-05T12:10:55.352Z,3.43
2019-05-05T12:13:22.188Z,3.83
2019-05-05T12:15:54.159Z,4.10
2019-05-05T12:18:23.697Z,3.63
2019-05-05T12:20:50.607Z,4.60
2019-05-05T12:23:17.233Z,4.43
2019-05-05T12:25:57.435Z,5.17
2019-05-05T12:28:31.634Z,3.50
2019-05-05T12:31:00.013Z,3.87
2019-05-05T12:33:26.710Z,4.90
2019-05-05T12:35:53.959Z,4.20
2019-05-05T12:38:21.016Z,4.40
2019-05-05T12:40:48.067Z,4.40
2019-05-05T12:43:14.718Z,3.60
2019-05-05T12:45:44.851Z,3.60
2019-05-05T12:48:15.990Z,4.60
2019-05-05T12:50:44.291Z,3.50
2019-05-05T12:53:11.138Z,3.43
2019-05-05T12:55:41.506Z,3.73
2019-05-05T12:58:08.958Z,3.40
2019-05-05T13:00:36.920Z,3.33
2019-05-05T13:03:04.440Z,3.60
2019-05-05T13:05:31.384Z,3.87
2019-05-05T13:07:58.312Z,3.63
2019-05-05T13:10:25.620Z,4.27
2019-05-05T13:12:54.302Z,4.07
2019-05-05T13:15:21.664Z,4.13
2019-05-05T13:17:48.441Z,4.20
2019-05-05T13:20:44.401Z,3.13
2019-05-05T13:23:39.556Z,3.17
2019-05-05T13:26:15.384Z,4.60
2019-05-05T13:28:43.722Z,3.40
2019-05-05T13:31:13.865Z,4.27
2019-05-05T13:33:40.556Z,3.40
2019-05-05T13:36:07.871Z,3.83
2019-05-05T13:38:34.923Z,5.10
2019-05-05T13:41:03.612Z,3.97
2019-05-05T13:43:30.332Z,4.17
2019-05-05T13:46:08.284Z,3.63
2019-05-05T13:48:35.011Z,4.17
2019-05-05T13:51:04.281Z,3.77
2019-05-05T13:53:31.394Z,3.73
2019-05-05T13:56:08.901Z,3.80
2019-05-05T13:58:27.527Z,3.37
2019-05-05T14:00:54.665Z,3.80
2019-05-05T14:03:23.525Z,3.50
2019-05-05T14:05:50.779Z,2.97
2019-05-05T14:08:17.428Z,3.70
2019-05-05T14:10:45.166Z,3.20
2019-05-05T14:13:11.790Z,3.90
2019-05-05T14:15:40.313Z,4.67
2019-05-05T14:18:07.751Z,3.90
2019-05-05T14:20:34.625Z,3.73
2019-05-05T14:23:03.725Z,4.10
2019-05-05T14:25:30.785Z,4.77
2019-05-05T14:27:57.601Z,3.97
2019-05-05T14:30:31.523Z,4.83
2019-05-05T14:33:01.100Z,3.90
2019-05-05T14:35:36.939Z,4.13
2019-05-05T14:38:07.315Z,4.97
2019-05-05T14:40:34.831Z,4.10
2019-05-05T14:43:01.905Z,3.70
2019-05-05T14:45:28.751Z,3.67
2019-05-05T14:47:56.072Z,3.90
2019-05-05T14:50:24.217Z,4.57
2019-05-05T14:52:53.509Z,4.20
2019-05-05T14:55:22.433Z,5.40
2019-05-05T14:57:49.351Z,4.70
2019-05-05T15:00:19.676Z,5.30
2019-05-05T15:02:47.669Z,5.13
2019-05-05T15:05:33.833Z,5.20
2019-05-05T15:08:26.148Z,5.10
2019-05-05T15:11:01.106Z,4.50
2019-05-05T15:13:27.827Z,4.43
2019-05-05T15:15:55.678Z,5.37
2019-05-05T15:18:24.134Z,5.10
2019-05-05T15:20:51.874Z,4.67
2019-05-05T15:23:19.037Z,4.40
2019-05-05T15:25:46.004Z,5.30
2019-05-05T15:28:13.806Z,4.93
2019-05-05T15:30:40.559Z,5.03
2019-05-05T15:33:09.787Z,4.33
2019-05-05T15:35:36.835Z,4.40
2019-05-05T15:38:04.538Z,5.30
2019-05-05T15:40:33.759Z,4.70
2019-05-05T15:43:03.702Z,5.60
2019-05-05T15:45:30.890Z,4.20
2019-05-05T15:47:57.988Z,4.40
2019-05-05T15:50:25.821Z,4.60
2019-05-05T15:52:54.461Z,4.73
2019-05-05T15:55:24.424Z,4.60
2019-05-05T15:57:50.967Z,4.83
2019-05-05T16:00:18.668Z,5.63
2019-05-05T16:02:45.330Z,4.47
2019-05-05T16:05:13.777Z,4.63
2019-05-05T16:07:40.650Z,5.07
2019-05-05T16:10:07.591Z,4.90
2019-05-05T16:12:39.207Z,5.33
2019-05-05T16:15:24.181Z,4.60
2019-05-05T16:18:10.455Z,4.50
2019-05-05T16:20:41.567Z,4.43
2019-05-05T16:23:14.361Z,4.30
2019-05-05T16:25:41.799Z,3.10
2019-05-05T16:28:08.975Z,3.83
2019-05-05T16:30:35.979Z,3.80
2019-05-05T16:33:04.247Z,4.17
2019-05-05T16:35:31.430Z,3.93
2019-05-05T16:37:58.046Z,4.53
2019-05-05T16:40:25.895Z,3.80
2019-05-05T16:42:54.273Z,4.90
2019-05-05T16:45:21.639Z,3.27
2019-05-05T16:47:48.451Z,4.23
2019-05-05T16:50:15.223Z,4.13
2019-05-05T16:52:57.239Z,4.80
2019-05-05T16:55:30.214Z,3.93
2019-05-05T16:57:57.863Z,4.47
2019-05-05T17:00:25.863Z,3.70
2019-05-05T17:02:53.691Z,4.47
2019-05-05T17:05:20.438Z,3.63
2019-05-05T17:07:47.392Z,3.90
2019-05-05T17:10:15.637Z,3.93
2019-05-05T17:12:44.311Z,4.40
2019-05-05T17:15:37.003Z,4.20
2019-05-05T17:18:35.980Z,3.97
2019-05-05T17:21:06.321Z,4.20
2019-05-05T17:23:34.179Z,4.00
2019-05-05T17:26:01.470Z,4.33
2019-05-05T17:28:28.910Z,4.07
2019-05-05T17:30:55.946Z,4.50
2019-05-05T17:33:24.158Z,4.10
2019-05-05T17:35:53.819Z,4.50
2019-05-05T17:38:20.887Z,3.80
2019-05-05T17:41:14.847Z,3.93
2019-05-05T17:44:03.138Z,3.70
2019-05-05T17:46:36.401Z,4.50
2019-05-05T17:49:29.960Z,3.73
2019-05-05T17:52:03.563Z,3.97
2019-05-05T17:54:40.019Z,3.47
2019-05-05T17:57:07.599Z,4.20
2019-05-05T17:59:35.057Z,3.40
2019-05-05T18:02:02.204Z,4.53
2019-05-05T18:04:29.182Z,3.63
2019-05-05T18:07:09.847Z,3.23
2019-05-05T18:09:54.916Z,2.87
2019-05-05T18:12:41.349Z,3.17
2019-05-05T18:15:13.616Z,3.20
2019-05-05T18:17:43.355Z,3.20
2019-05-05T18:20:10.476Z,2.73
2019-05-05T18:22:38.391Z,2.73
2019-05-05T18:25:05.831Z,2.60
2019-05-05T18:27:34.346Z,3.23
2019-05-05T18:30:03.965Z,3.40
2019-05-05T18:32:31.179Z,2.30
2019-05-05T18:34:58.631Z,2.30
2019-05-05T18:37:25.295Z,2.70
2019-05-05T18:39:54.452Z,2.80
2019-05-05T18:42:24.565Z,2.70
2019-05-05T18:44:56.031Z,2.70
2019-05-05T18:47:25.120Z,2.20
2019-05-05T18:49:54.004Z,2.97
2019-05-05T18:52:21.675Z,2.60
2019-05-05T18:54:49.232Z,5.13
2019-05-05T18:57:17.338Z,2.50
2019-05-05T18:59:44.935Z,3.20
2019-05-05T19:02:47.097Z,3.30
2019-05-05T19:05:44.055Z,3.60
2019-05-05T19:08:15.836Z,2.93
2019-05-05T19:10:44.114Z,3.00
2019-05-05T19:13:11.160Z,2.50
2019-05-05T19:15:37.979Z,3.30
2019-05-05T19:18:06.672Z,3.17
2019-05-05T19:20:59.400Z,2.87
2019-05-05T19:23:26.382Z,2.50
2019-05-05T19:25:55.841Z,3.07
2019-05-05T19:28:23.506Z,3.33
2019-05-05T19:30:50.451Z,4.13
2019-05-05T19:33:17.095Z,3.70
2019-05-05T19:35:47.127Z,3.33
2019-05-05T19:38:15.590Z,3.60
2019-05-05T19:40:41.193Z,3.50
2019-05-05T19:43:07.917Z,3.17
2019-05-05T19:45:35.808Z,3.57
2019-05-05T19:48:05.530Z,3.40
2019-05-05T19:50:39.759Z,3.70
2019-05-05T19:53:21.645Z,3.83
2019-05-05T19:55:48.650Z,4.60
2019-05-05T19:58:17.794Z,4.20
2019-05-05T20:00:44.412Z,3.73
2019-05-05T20:03:11.067Z,4.63
2019-05-05T20:05:38.239Z,4.80
2019-05-05T20:08:04.976Z,4.47
2019-05-05T20:10:31.659Z,4.70
2019-05-05T20:12:59.788Z,3.43
2019-05-05T20:15:35.844Z,3.80
2019-05-05T20:18:04.641Z,3.67
2019-05-05T20:20:33.126Z,4.20
2019-05-05T20:23:00.375Z,4.10
2019-05-05T20:25:27.725Z,4.10
2019-05-05T20:27:56.042Z,4.47
2019-05-05T20:30:24.699Z,3.80
2019-05-05T20:33:00.043Z,4.70
2019-05-05T20:35:55.283Z,4.33
2019-05-05T20:38:33.852Z,3.63
2019-05-05T20:41:17.187Z,4.13
2019-05-05T20:43:44.815Z,4.20
2019-05-05T20:46:12.228Z,3.83
2019-05-05T20:48:41.196Z,3.87
2019-05-05T20:51:08.341Z,4.00
2019-05-05T20:53:35.587Z,3.63
2019-05-05T20:56:04.341Z,4.07
2019-05-05T20:58:33.658Z,4.10
2019-05-05T21:01:04.498Z,4.57
2019-05-05T21:03:31.553Z,3.80
2019-05-05T21:05:59.130Z,3.80
2019-05-05T21:08:27.936Z,4.60
2019-05-05T21:10:55.263Z,5.20
2019-05-05T21:13:22.307Z,4.30
2019-05-05T21:15:50.305Z,4.50
2019-05-05T21:18:17.726Z,3.50
2019-05-05T21:20:44.452Z,4.53
2019-05-05T21:23:40.955Z,3.93
2019-05-05T21:26:17.171Z,4.57
2019-05-05T21:28:44.554Z,3.70
2019-05-05T21:31:14.500Z,3.77
2019-05-05T21:33:41.105Z,3.53
2019-05-05T21:36:08.583Z,3.77
2019-05-05T21:38:35.721Z,3.60
2019-05-05T21:41:04.316Z,3.60
2019-05-05T21:43:32.261Z,4.20
2019-05-05T21:46:00.086Z,3.73
2019-05-05T21:48:26.735Z,4.33
2019-05-05T21:51:06.111Z,4.57
2019-05-05T21:53:58.245Z,4.47
2019-05-05T21:56:38.855Z,5.80
2019-05-05T21:59:06.462Z,4.03
2019-05-05T22:01:39.678Z,3.90
2019-05-05T22:04:04.325Z,4.20
2019-05-05T22:06:31.311Z,4.57
2019-05-05T22:09:00.473Z,4.40
2019-05-05T22:11:27.493Z,3.83
2019-05-05T22:13:54.246Z,4.53
2019-05-05T22:16:21.295Z,4.03
2019-05-05T22:18:47.959Z,5.33
2019-05-05T22:21:36.865Z,3.80
2019-05-05T22:24:23.155Z,4.00
2019-05-05T22:26:50.344Z,3.80
2019-05-05T22:29:18.008Z,4.03
2019-05-05T22:31:45.568Z,3.97
2019-05-05T22:34:14.401Z,4.30
2019-05-05T22:36:42.017Z,4.27
2019-05-05T22:39:09.881Z,4.00
2019-05-05T22:41:36.702Z,4.90
2019-05-05T22:44:04.475Z,5.13
2019-05-05T22:46:31.239Z,4.10
2019-05-05T22:48:58.477Z,4.07
2019-05-05T22:51:25.736Z,4.60
2019-05-05T22:53:54.654Z,4.07
2019-05-05T22:56:24.009Z,5.03
2019-05-05T22:58:50.868Z,4.70
2019-05-05T23:01:17.486Z,5.00
2019-05-05T23:03:58.787Z,5.10
2019-05-05T23:06:26.554Z,4.67
2019-05-05T23:08:54.619Z,4.43
2019-05-05T23:11:23.839Z,4.57
2019-05-05T23:13:54.365Z,4.40
2019-05-05T23:16:34.935Z,5.07
2019-05-05T23:19:03.445Z,4.20
2019-05-05T23:21:39.580Z,4.87
2019-05-05T23:24:28.660Z,4.70
2019-05-05T23:26:57.187Z,4.00
2019-05-05T23:29:24.276Z,4.43
2019-05-05T23:31:53.850Z,4.80
2019-05-05T23:34:20.641Z,4.53
2019-05-05T23:36:47.354Z,4.63
2019-05-05T23:39:15.175Z,4.87
2019-05-05T23:41:41.744Z,4.73
2019-05-05T23:44:08.794Z,5.53
2019-05-05T23:46:35.556Z,4.20
2019-05-05T23:49:04.127Z,3.63
2019-05-05T23:51:30.684Z,3.90
2019-05-05T23:53:57.708Z,4.83
2019-05-05T23:56:24.447Z,4.00
2019-05-05T23:58:54.938Z,4.37
